Time;durP1;ratioP1;P1;durP2;ratioP2;P2;SDS_P1;SDS_P2;PMS_P1;PMS_P2;Temp;Humidity;BMP_temperature;BMP_pressure;BME280_temperature;BME280_humidity;BME280_pressure;Samples;Min_cycle;Max_cycle;Signal;HPM_P1;HPM_P2
2023/11/29 00:00:34;;;;;;;1.55;1.48;;;;;;;14.95;nan;98954.19;7399610;19;20018;-57
2023/11/29 00:03:01;;;;;;;0.55;0.55;;;;;;;14.99;nan;98963.06;7401541;19;20010;-57
2023/11/29 00:05:27;;;;;;;0.52;0.52;;;;;;;15.98;nan;98957.44;7395017;19;20018;-57
2023/11/29 00:07:53;;;;;;;1.20;0.88;;;;;;;16.06;nan;98951.94;7395639;19;20376;-57
2023/11/29 00:10:22;;;;;;;0.40;0.40;;;;;;;15.87;nan;98946.34;7398902;19;20032;-57
2023/11/29 00:12:48;;;;;;;0.80;0.80;;;;;;;15.71;nan;98944.56;7397853;19;20499;-57
2023/11/29 00:15:14;;;;;;;1.15;0.98;;;;;;;16.00;nan;98943.59;7397222;19;20007;-56
2023/11/29 00:17:40;;;;;;;4.45;1.85;;;;;;;15.70;nan;98946.59;7396055;19;20342;-57
2023/11/29 00:20:07;;;;;;;1.27;0.52;;;;;;;15.89;nan;98938.16;7398711;19;20011;-56
2023/11/29 00:22:33;;;;;;;1.55;0.70;;;;;;;15.78;nan;98941.13;7397416;19;20014;-56
2023/11/29 00:24:59;;;;;;;3.65;1.35;;;;;;;15.69;nan;98941.53;7397257;19;20029;-56
2023/11/29 00:27:25;;;;;;;1.38;0.88;;;;;;;15.66;nan;98943.34;7395799;19;20038;-57
2023/11/29 00:29:51;;;;;;;0.30;0.30;;;;;;;15.66;nan;98937.72;7397967;19;20014;-57
2023/11/29 00:32:18;;;;;;;0.47;0.47;;;;;;;15.76;nan;98941.69;7399201;19;20015;-57
2023/11/29 00:34:44;;;;;;;2.55;1.38;;;;;;;16.18;nan;98939.97;7395050;19;20376;-57
2023/11/29 00:37:10;;;;;;;0.35;0.35;;;;;;;16.78;nan;98936.63;7396174;19;20011;-57
2023/11/29 00:39:36;;;;;;;2.97;0.68;;;;;;;16.87;nan;98944.66;7396254;19;20021;-57
2023/11/29 00:42:02;;;;;;;1.58;0.80;;;;;;;20.51;nan;98935.47;7399275;19;20463;-57
2023/11/29 00:44:29;;;;;;;2.05;1.00;;;;;;;21.82;nan;98931.13;7395963;19;20015;-57
2023/11/29 00:46:55;;;;;;;2.53;2.05;;;;;;;21.78;nan;98936.44;7395435;19;20018;-57
2023/11/29 00:49:21;;;;;;;4.22;1.55;;;;;;;18.93;nan;98939.28;7395001;19;20010;-57
2023/11/29 00:51:48;;;;;;;9.00;0.93;;;;;;;16.84;nan;98934.47;7396665;19;20021;-57
2023/11/29 00:54:14;;;;;;;1.30;0.85;;;;;;;16.28;nan;98924.22;7396199;19;20043;-57
2023/11/29 00:56:40;;;;;;;1.45;1.45;;;;;;;17.62;nan;98923.13;7394162;19;20011;-57
2023/11/29 00:59:06;;;;;;;1.83;1.70;;;;;;;16.53;nan;98928.41;7395103;19;20018;-57
2023/11/29 01:01:32;;;;;;;2.97;1.40;;;;;;;16.92;nan;98929.69;7397648;19;20014;-57
2023/11/29 01:04:00;;;;;;;2.75;1.77;;;;;;;16.49;nan;98933.56;7395307;19;20011;-57
2023/11/29 01:06:26;;;;;;;2.60;1.70;;;;;;;16.94;nan;98929.91;7393729;19;20409;-57
2023/11/29 01:08:53;;;;;;;8.70;1.98;;;;;;;17.43;nan;98922.50;7397106;19;20078;-57
2023/11/29 01:11:20;;;;;;;3.90;1.67;;;;;;;17.73;nan;98922.09;7394348;19;20014;-57
2023/11/29 01:13:46;;;;;;;2.83;2.55;;;;;;;17.94;nan;98931.34;7395448;19;20471;-57
2023/11/29 01:16:12;;;;;;;1.30;1.02;;;;;;;18.03;nan;98922.41;7395551;19;20015;-57
2023/11/29 01:18:42;;;;;;;2.85;1.30;;;;;;;18.01;nan;98925.78;7391869;19;20639;-57
2023/11/29 01:21:12;;;;;;;5.38;1.17;;;;;;;17.91;nan;98926.81;7397599;19;20014;-57
2023/11/29 01:23:38;;;;;;;1.70;1.53;;;;;;;17.04;nan;98919.75;7394332;19;20047;-57
2023/11/29 01:26:05;;;;;;;7.35;2.55;;;;;;;17.27;nan;98932.06;7393934;19;20007;-57
2023/11/29 01:28:31;;;;;;;1.45;1.35;;;;;;;17.56;nan;98924.56;7395135;19;20045;-57
2023/11/29 01:30:58;;;;;;;3.38;0.80;;;;;;;17.47;nan;98928.56;7394778;19;20050;-57
2023/11/29 01:33:24;;;;;;;16.35;4.50;;;;;;;17.53;nan;98926.41;7396141;19;20018;-57
2023/11/29 01:35:50;;;;;;;1.20;1.10;;;;;;;17.57;nan;98929.63;7393891;19;20018;-57
2023/11/29 01:38:17;;;;;;;1.60;1.50;;;;;;;17.65;nan;98927.66;7395325;19;20015;-57
2023/11/29 01:40:43;;;;;;;1.33;0.93;;;;;;;17.72;nan;98917.75;7396910;19;20022;-57
2023/11/29 01:43:10;;;;;;;2.30;1.40;;;;;;;17.70;nan;98918.31;7393308;19;20029;-57
2023/11/29 01:45:36;;;;;;;6.13;1.42;;;;;;;17.68;nan;98914.53;7394715;19;20019;-57
2023/11/29 01:48:02;;;;;;;1.45;1.35;;;;;;;18.50;nan;98914.56;7394528;19;20033;-57
2023/11/29 01:50:35;;;;;;;1.55;1.45;;;;;;;18.37;nan;98916.66;7395689;19;20015;-57
2023/11/29 01:53:02;;;;;;;10.05;0.98;;;;;;;18.40;nan;98915.56;7392824;19;20042;-57
2023/11/29 01:55:28;;;;;;;11.50;1.65;;;;;;;18.42;nan;98907.31;7392854;19;20015;-57
2023/11/29 01:57:57;;;;;;;4.03;0.75;;;;;;;18.32;nan;98917.59;7390080;19;20396;-57
2023/11/29 02:00:23;;;;;;;2.33;1.08;;;;;;;18.14;nan;98911.63;7394830;19;20006;-57
2023/11/29 02:02:49;;;;;;;1.75;1.05;;;;;;;18.30;nan;98917.38;7394343;19;20010;-57
2023/11/29 02:05:16;;;;;;;1.30;0.90;;;;;;;18.29;nan;98921.50;7396218;19;20111;-58
2023/11/29 02:07:42;;;;;;;3.25;0.88;;;;;;;18.46;nan;98924.66;7395295;19;20010;-57
2023/11/29 02:10:09;;;;;;;1.00;1.00;;;;;;;18.12;nan;98925.50;7398562;19;20608;-57
2023/11/29 02:12:47;;;;;;;4.93;1.58;;;;;;;18.38;nan;98923.84;7391057;19;20014;-63
2023/11/29 02:15:24;;;;;;;25.50;2.92;;;;;;;18.57;nan;98924.38;7394395;19;20011;-57
2023/11/29 02:17:57;;;;;;;1.77;0.90;;;;;;;18.72;nan;98913.19;7390292;19;20459;-57
2023/11/29 02:20:25;;;;;;;1.50;1.10;;;;;;;22.94;nan;98893.91;7393797;19;20003;-57
2023/11/29 02:23:25;;;;;;;11.85;2.20;;;;;;;23.90;nan;98889.69;7391053;19;20002;-57
2023/11/29 02:25:51;;;;;;;2.78;1.63;;;;;;;24.14;nan;98893.69;7391876;19;20036;-57
2023/11/29 02:28:17;;;;;;;0.73;0.73;;;;;;;19.83;nan;98905.03;7392420;19;20025;-58
2023/11/29 02:30:43;;;;;;;6.75;1.48;;;;;;;18.36;nan;98899.03;7393551;19;20042;-57
2023/11/29 02:33:09;;;;;;;5.57;2.63;;;;;;;17.92;nan;98895.25;7394577;19;20102;-57
2023/11/29 02:35:36;;;;;;;2.10;1.05;;;;;;;17.80;nan;98888.38;7391469;19;20014;-57
2023/11/29 02:38:02;;;;;;;5.72;1.50;;;;;;;17.83;nan;98901.38;7391110;19;20371;-58
2023/11/29 02:40:28;;;;;;;1.02;0.98;;;;;;;17.77;nan;98889.50;7394458;19;20026;-58
2023/11/29 02:42:55;;;;;;;0.68;0.52;;;;;;;17.82;nan;98888.56;7393391;19;20013;-58
2023/11/29 02:45:21;;;;;;;2.13;1.63;;;;;;;17.73;nan;98891.88;7393030;19;20018;-57
2023/11/29 02:47:47;;;;;;;0.25;0.25;;;;;;;17.59;nan;98896.06;7393132;19;20446;-57
2023/11/29 02:50:14;;;;;;;2.05;1.85;;;;;;;17.64;nan;98892.34;7393503;19;20018;-58
2023/11/29 02:52:40;;;;;;;5.05;1.75;;;;;;;16.71;nan;98886.66;7392367;19;20021;-58
2023/11/29 02:55:07;;;;;;;1.52;1.42;;;;;;;16.23;nan;98887.78;7393576;19;20014;-57
2023/11/29 02:57:33;;;;;;;2.00;1.90;;;;;;;16.67;nan;98887.75;7390401;19;20010;-57
2023/11/29 02:59:59;;;;;;;2.05;1.85;;;;;;;16.86;nan;98892.50;7392929;19;20011;-57
2023/11/29 03:02:25;;;;;;;1.20;0.60;;;;;;;17.25;nan;98884.00;7394089;19;20062;-57
2023/11/29 03:04:52;;;;;;;7.88;1.38;;;;;;;17.50;nan;98888.06;7391136;19;20046;-58
2023/11/29 03:07:18;;;;;;;1.27;1.10;;;;;;;17.51;nan;98883.97;7389405;19;20011;-57
2023/11/29 03:09:44;;;;;;;3.03;1.85;;;;;;;17.59;nan;98873.53;7393617;19;20011;-57
2023/11/29 03:12:10;;;;;;;0.47;0.47;;;;;;;17.68;nan;98875.09;7396132;19;20015;-58
2023/11/29 03:14:36;;;;;;;0.52;0.52;;;;;;;17.67;nan;98867.97;7391996;19;20018;-57
2023/11/29 03:17:02;;;;;;;13.57;1.90;;;;;;;17.71;nan;98876.84;7391741;19;20015;-57
2023/11/29 03:19:29;;;;;;;8.50;2.00;;;;;;;17.85;nan;98879.03;7392123;19;20026;-57
2023/11/29 03:21:55;;;;;;;0.73;0.73;;;;;;;17.87;nan;98875.66;7395430;19;20021;-57
2023/11/29 03:24:21;;;;;;;1.00;0.70;;;;;;;17.82;nan;98863.22;7392137;19;20116;-57
2023/11/29 03:26:47;;;;;;;2.80;1.13;;;;;;;18.03;nan;98863.25;7391382;19;20010;-57
2023/11/29 03:29:14;;;;;;;3.03;0.60;;;;;;;18.09;nan;98858.97;7390813;19;20014;-58
2023/11/29 03:31:40;;;;;;;1.55;0.88;;;;;;;18.24;nan;98857.56;7394392;19;20021;-57
2023/11/29 03:34:06;;;;;;;4.22;0.63;;;;;;;18.16;nan;98849.81;7391384;19;20018;-57
2023/11/29 03:36:32;;;;;;;2.50;1.20;;;;;;;18.13;nan;98855.78;7397112;19;20514;-58
2023/11/29 03:38:59;;;;;;;24.02;4.03;;;;;;;17.98;nan;98850.81;7395351;19;20026;-58
2023/11/29 03:41:25;;;;;;;2.30;2.10;;;;;;;17.87;nan;98847.50;7398977;19;20017;-58
2023/11/29 03:43:51;;;;;;;0.68;0.63;;;;;;;18.24;nan;98837.84;7398206;19;20015;-58
2023/11/29 03:46:17;;;;;;;0.30;0.30;;;;;;;18.74;nan;98838.00;7397752;19;20014;-58
2023/11/29 03:48:43;;;;;;;2.40;1.52;;;;;;;17.99;nan;98849.50;7396225;19;20003;-58
2023/11/29 03:51:09;;;;;;;0.70;0.70;;;;;;;17.91;nan;98843.03;7400416;19;20336;-58
2023/11/29 03:53:37;;;;;;;1.73;1.63;;;;;;;17.87;nan;98837.00;7397252;19;20466;-58
2023/11/29 03:56:03;;;;;;;5.57;1.55;;;;;;;18.06;nan;98837.53;7399012;19;20017;-58
2023/11/29 03:58:29;;;;;;;1.60;1.50;;;;;;;18.23;nan;98839.16;7395300;19;20022;-58
2023/11/29 04:00:55;;;;;;;1.23;1.15;;;;;;;18.13;nan;98836.84;7400576;19;20023;-57
2023/11/29 04:03:21;;;;;;;5.00;1.38;;;;;;;18.12;nan;98838.16;7398129;19;20010;-57
2023/11/29 04:05:47;;;;;;;0.32;0.32;;;;;;;18.18;nan;98844.41;7393142;19;20463;-58
2023/11/29 04:08:14;;;;;;;7.32;1.65;;;;;;;18.29;nan;98848.97;7393035;19;20018;-58
2023/11/29 04:10:40;;;;;;;0.80;0.75;;;;;;;18.25;nan;98842.94;7393618;19;20002;-58
2023/11/29 04:13:06;;;;;;;1.30;0.63;;;;;;;18.18;nan;98838.75;7393017;19;20086;-57
2023/11/29 04:15:32;;;;;;;1.85;0.82;;;;;;;18.09;nan;98825.16;7393881;19;20103;-58
2023/11/29 04:17:58;;;;;;;1.55;1.45;;;;;;;17.96;nan;98828.06;7392293;19;20031;-58
2023/11/29 04:20:24;;;;;;;2.33;1.60;;;;;;;17.83;nan;98833.00;7396659;19;20014;-57
2023/11/29 04:22:50;;;;;;;4.30;0.88;;;;;;;17.76;nan;98826.00;7397549;19;20048;-58
2023/11/29 04:25:18;;;;;;;5.25;2.15;;;;;;;17.86;nan;98817.84;7395376;19;20433;-57
2023/11/29 04:27:44;;;;;;;2.35;0.90;;;;;;;17.78;nan;98833.91;7395577;19;20014;-57
2023/11/29 04:30:10;;;;;;;2.47;0.90;;;;;;;17.83;nan;98830.94;7395367;19;20003;-57
2023/11/29 04:32:37;;;;;;;0.95;0.95;;;;;;;17.71;nan;98829.72;7397910;19;20034;-58
2023/11/29 04:35:03;;;;;;;3.95;1.00;;;;;;;17.67;nan;98823.66;7397621;19;20109;-58
2023/11/29 04:37:30;;;;;;;2.80;1.27;;;;;;;17.83;nan;98830.94;7393479;19;20045;-58
2023/11/29 04:39:56;;;;;;;0.75;0.75;;;;;;;17.66;nan;98830.63;7395523;19;20017;-58
2023/11/29 04:42:22;;;;;;;0.30;0.30;;;;;;;17.61;nan;98822.28;7400377;19;20015;-58
2023/11/29 04:44:48;;;;;;;1.00;1.00;;;;;;;17.45;nan;98824.19;7395114;19;20018;-58
2023/11/29 04:47:15;;;;;;;0.77;0.77;;;;;;;17.44;nan;98820.63;7396524;19;20050;-58
2023/11/29 04:49:41;;;;;;;1.20;0.63;;;;;;;16.82;nan;98824.59;7397127;19;20015;-58
2023/11/29 04:52:07;;;;;;;1.85;1.13;;;;;;;17.06;nan;98810.25;7401075;19;20013;-58
2023/11/29 04:54:34;;;;;;;2.65;0.68;;;;;;;16.90;nan;98808.56;7396616;19;20014;-57
2023/11/29 04:57:00;;;;;;;0.80;0.80;;;;;;;17.21;nan;98816.81;7396820;19;20019;-58
2023/11/29 04:59:26;;;;;;;0.52;0.52;;;;;;;16.81;nan;98814.63;7396518;19;20015;-58
2023/11/29 05:01:52;;;;;;;0.70;0.70;;;;;;;17.27;nan;98808.22;7398613;19;20023;-58
2023/11/29 05:04:18;;;;;;;1.05;1.02;;;;;;;16.57;nan;98816.41;7395439;19;20007;-58
2023/11/29 05:06:44;;;;;;;3.90;0.85;;;;;;;16.42;nan;98818.97;7396212;19;20026;-58
2023/11/29 05:09:14;;;;;;;0.95;0.80;;;;;;;15.93;nan;98815.03;7398611;19;20036;-57
2023/11/29 05:11:41;;;;;;;5.05;1.75;;;;;;;16.00;nan;98808.03;7397714;19;20462;-57
2023/11/29 05:14:07;;;;;;;0.35;0.30;;;;;;;16.27;nan;98798.31;7395207;19;20015;-58
2023/11/29 05:16:33;;;;;;;0.35;0.35;;;;;;;16.09;nan;98799.94;7394482;19;20438;-58
2023/11/29 05:19:00;;;;;;;0.60;0.60;;;;;;;16.09;nan;98799.94;7393364;19;20035;-57
2023/11/29 05:21:27;;;;;;;0.57;0.57;;;;;;;15.38;nan;98805.47;7396782;19;20015;-58
2023/11/29 05:23:53;;;;;;;1.10;1.00;;;;;;;14.77;nan;98808.41;7395630;19;20018;-57
2023/11/29 05:26:19;;;;;;;4.80;0.85;;;;;;;14.42;nan;98818.50;7395810;19;20031;-57
2023/11/29 05:28:45;;;;;;;1.58;1.48;;;;;;;14.22;nan;98807.00;7394483;19;20009;-58
2023/11/29 05:31:13;;;;;;;0.60;0.60;;;;;;;15.87;nan;98800.34;7397742;19;20094;-58
2023/11/29 05:33:39;;;;;;;4.47;0.88;;;;;;;16.07;nan;98798.97;7398000;19;20453;-57
2023/11/29 05:36:05;;;;;;;0.68;0.68;;;;;;;16.15;nan;98788.59;7396084;19;20015;-58
2023/11/29 05:38:32;;;;;;;0.68;0.40;;;;;;;16.28;nan;98795.00;7397207;19;20079;-57
2023/11/29 05:40:58;;;;;;;0.47;0.43;;;;;;;16.23;nan;98795.84;7396622;19;20010;-57
2023/11/29 05:43:24;;;;;;;0.88;0.88;;;;;;;16.24;nan;98791.00;7395018;19;20027;-57
2023/11/29 05:45:50;;;;;;;1.75;0.88;;;;;;;16.27;nan;98787.84;7395402;19;20022;-57
2023/11/29 05:48:17;;;;;;;0.95;0.95;;;;;;;16.36;nan;98784.59;7393120;19;20015;-58
2023/11/29 05:50:43;;;;;;;1.17;0.73;;;;;;;16.29;nan;98784.50;7395661;19;20003;-57
2023/11/29 05:53:09;;;;;;;0.57;0.47;;;;;;;16.99;nan;98788.41;7394721;19;20003;-57
2023/11/29 05:55:35;;;;;;;0.57;0.50;;;;;;;16.79;nan;98797.53;7394443;19;20014;-57
2023/11/29 05:58:03;;;;;;;0.43;0.43;;;;;;;16.57;nan;98793.91;7391066;19;20010;-57
2023/11/29 06:00:30;;;;;;;0.70;0.70;;;;;;;16.61;nan;98793.59;7395580;19;20066;-57
2023/11/29 06:02:56;;;;;;;13.55;1.33;;;;;;;16.56;nan;98789.59;7396534;19;20014;-57
2023/11/29 06:05:22;;;;;;;3.22;1.38;;;;;;;16.36;nan;98795.09;7392716;19;20022;-57
2023/11/29 06:07:48;;;;;;;3.30;1.08;;;;;;;16.30;nan;98797.25;7393453;19;20454;-58
2023/11/29 06:10:14;;;;;;;0.47;0.47;;;;;;;15.85;nan;98798.06;7392111;19;20487;-57
2023/11/29 06:12:41;;;;;;;0.20;0.20;;;;;;;15.53;nan;98805.00;7393884;19;20043;-57
2023/11/29 06:15:08;;;;;;;1.30;0.93;;;;;;;15.13;nan;98807.66;7394583;19;20010;-58
2023/11/29 06:17:35;;;;;;;2.70;1.15;;;;;;;13.52;nan;98805.88;7392748;19;20006;-57
2023/11/29 06:20:04;;;;;;;3.22;0.85;;;;;;;13.15;nan;98802.84;7393782;19;20014;-57
2023/11/29 06:22:32;;;;;;;0.70;0.70;;;;;;;13.44;nan;98813.34;7392679;19;20018;-57
2023/11/29 06:24:59;;;;;;;0.40;0.40;;;;;;;13.60;nan;98812.41;7393919;19;20443;-57
2023/11/29 06:27:28;;;;;;;0.43;0.40;;;;;;;14.57;nan;98800.50;7393572;19;20021;-57
2023/11/29 06:29:54;;;;;;;0.55;0.55;;;;;;;14.39;nan;98802.75;7394112;19;20014;-57
2023/11/29 06:32:22;;;;;;;1.95;1.42;;;;;;;14.69;nan;98813.84;7396902;19;20039;-57
2023/11/29 06:34:50;;;;;;;1.25;1.15;;;;;;;14.03;nan;98809.00;7393444;19;20014;-57
2023/11/29 06:37:16;;;;;;;1.65;1.30;;;;;;;15.50;nan;98795.63;7391265;19;20473;-57
2023/11/29 06:39:46;;;;;;;7.20;1.33;;;;;;;14.57;nan;98797.72;7396306;19;20400;-57
2023/11/29 06:42:13;;;;;;;2.88;1.48;;;;;;;14.88;nan;98797.03;7397034;19;20014;-57
2023/11/29 06:44:40;;;;;;;10.07;2.50;;;;;;;15.50;nan;98806.09;7394357;19;20025;-57
2023/11/29 06:47:06;;;;;;;9.48;3.47;;;;;;;15.71;nan;98792.97;7394360;19;20019;-57
2023/11/29 06:49:32;;;;;;;6.85;2.00;;;;;;;15.89;nan;98801.34;7394328;19;20021;-57
2023/11/29 06:51:58;;;;;;;3.17;1.50;;;;;;;15.75;nan;98796.97;7395332;19;20051;-57
2023/11/29 06:54:24;;;;;;;19.85;3.45;;;;;;;15.83;nan;98789.44;7392164;19;20015;-57
2023/11/29 06:56:51;;;;;;;15.65;3.13;;;;;;;16.00;nan;98791.94;7392825;19;20015;-57
2023/11/29 06:59:17;;;;;;;3.00;2.13;;;;;;;16.11;nan;98786.13;7393390;19;20039;-57
2023/11/29 07:01:43;;;;;;;0.80;0.80;;;;;;;15.94;nan;98789.22;7396772;19;20022;-57
2023/11/29 07:04:09;;;;;;;1.45;1.35;;;;;;;16.15;nan;98780.19;7396565;19;20104;-61
2023/11/29 07:06:37;;;;;;;3.22;1.65;;;;;;;16.13;nan;98794.78;7392239;19;20007;-57
2023/11/29 07:09:06;;;;;;;2.95;1.13;;;;;;;15.94;nan;98792.03;7396854;19;20025;-57
2023/11/29 07:11:36;;;;;;;0.60;0.60;;;;;;;16.67;nan;98792.16;7400118;19;20006;-57
2023/11/29 07:14:03;;;;;;;1.85;1.38;;;;;;;16.92;nan;98789.84;7402403;19;20510;-57
2023/11/29 07:16:29;;;;;;;1.80;1.70;;;;;;;17.10;nan;98793.78;7403283;19;20014;-57
2023/11/29 07:18:56;;;;;;;3.92;2.78;;;;;;;16.89;nan;98793.00;7395965;19;20325;-56
2023/11/29 07:21:22;;;;;;;2.20;2.10;;;;;;;16.48;nan;98794.31;7399257;19;20020;-57
2023/11/29 07:23:48;;;;;;;1.40;1.25;;;;;;;19.00;nan;98791.84;7399842;19;20467;-56
2023/11/29 07:26:14;;;;;;;0.40;0.40;;;;;;;17.45;nan;98798.84;7399092;19;20023;-57
2023/11/29 07:28:40;;;;;;;1.17;0.75;;;;;;;18.99;nan;98793.16;7402847;19;20021;-57
2023/11/29 07:31:10;;;;;;;2.15;1.27;;;;;;;16.21;nan;98789.25;7399019;19;20011;-57
2023/11/29 07:33:37;;;;;;;1.27;0.85;;;;;;;14.54;nan;98790.34;7397995;19;20445;-84
2023/11/29 07:36:14;;;;;;;1.27;1.27;;;;;;;14.06;nan;98794.69;7391181;19;20020;-85
2023/11/29 07:38:40;;;;;;;3.70;1.85;;;;;;;13.27;nan;98790.34;7389817;19;20006;-85
2023/11/29 07:41:06;;;;;;;0.38;0.38;;;;;;;13.66;nan;98799.13;7389336;19;20386;-85
2023/11/29 07:43:33;;;;;;;0.50;0.50;;;;;;;14.23;nan;98800.09;7388764;19;20003;-84
2023/11/29 07:45:59;;;;;;;1.08;0.80;;;;;;;13.72;nan;98793.50;7393306;19;20031;-85
2023/11/29 07:48:25;;;;;;;0.82;0.82;;;;;;;14.56;nan;98791.34;7389006;19;20505;-85
2023/11/29 07:50:53;;;;;;;1.38;1.33;;;;;;;14.04;nan;98791.66;7376357;19;20006;-84
2023/11/29 07:53:19;;;;;;;0.88;0.88;;;;;;;14.31;nan;98790.59;7393185;19;20011;-84
2023/11/29 07:55:45;;;;;;;7.97;2.63;;;;;;;13.28;nan;98796.66;7392429;19;20461;-85
2023/11/29 07:58:11;;;;;;;0.70;0.70;;;;;;;12.49;nan;98790.00;7393646;19;19998;-85
2023/11/29 08:00:38;;;;;;;1.25;1.20;;;;;;;13.00;nan;98787.69;7392941;19;20061;-85
2023/11/29 08:03:04;;;;;;;3.95;1.45;;;;;;;13.23;nan;98784.22;7394694;19;20094;-84
2023/11/29 08:05:30;;;;;;;4.15;2.60;;;;;;;13.31;nan;98788.00;7394398;19;20026;-84
2023/11/29 08:07:57;;;;;;;1.48;1.02;;;;;;;12.91;nan;98795.09;7393003;19;20023;-84
2023/11/29 08:10:23;;;;;;;1.80;0.68;;;;;;;13.43;nan;98792.22;7394766;19;20010;-84
2023/11/29 08:12:50;;;;;;;3.42;1.20;;;;;;;13.81;nan;98786.81;7392815;19;20457;-85
2023/11/29 08:15:16;;;;;;;3.45;2.22;;;;;;;13.74;nan;98787.38;7396391;19;20372;-84
2023/11/29 08:17:42;;;;;;;0.95;0.93;;;;;;;13.10;nan;98786.13;7390882;19;20010;-84
2023/11/29 08:20:09;;;;;;;3.38;2.28;;;;;;;13.02;nan;98791.47;7393265;19;20037;-83
2023/11/29 08:22:35;;;;;;;7.50;1.52;;;;;;;13.26;nan;98791.59;7392214;19;20015;-81
2023/11/29 08:25:01;;;;;;;1.13;1.02;;;;;;;15.97;nan;98787.41;7390661;19;20058;-82
2023/11/29 08:27:27;;;;;;;16.88;1.98;;;;;;;19.02;nan;98789.22;7392483;19;20359;-83
2023/11/29 08:29:54;;;;;;;0.70;0.70;;;;;;;17.24;nan;98792.44;7390807;19;20347;-82
2023/11/29 08:32:20;;;;;;;0.98;0.75;;;;;;;15.94;nan;98794.09;7394423;19;20022;-82
2023/11/29 08:34:46;;;;;;;2.55;2.17;;;;;;;15.72;nan;98786.81;7393861;19;20011;-83
2023/11/29 08:37:13;;;;;;;9.85;1.55;;;;;;;15.62;nan;98788.53;7393095;19;20009;-83
2023/11/29 08:39:39;;;;;;;0.93;0.90;;;;;;;15.75;nan;98787.78;7393989;19;20341;-83
2023/11/29 08:42:05;;;;;;;4.25;2.00;;;;;;;15.79;nan;98783.38;7394301;19;20472;-85
2023/11/29 08:44:32;;;;;;;4.15;1.83;;;;;;;15.63;nan;98786.47;7392245;19;20024;-83
2023/11/29 08:46:58;;;;;;;1.45;1.15;;;;;;;13.62;nan;98787.47;7397274;19;20014;-85
2023/11/29 08:49:24;;;;;;;1.55;1.17;;;;;;;14.77;nan;98781.13;7394286;19;20011;-83
2023/11/29 08:51:50;;;;;;;6.32;3.05;;;;;;;14.52;nan;98785.28;7392438;19;20601;-83
2023/11/29 08:54:16;;;;;;;1.05;1.00;;;;;;;15.05;nan;98787.09;7392811;19;20033;-83
2023/11/29 08:56:43;;;;;;;0.73;0.73;;;;;;;15.19;nan;98787.91;7391837;19;20095;-83
2023/11/29 08:59:10;;;;;;;1.02;0.65;;;;;;;15.90;nan;98768.38;7391072;19;20006;-84
2023/11/29 09:01:36;;;;;;;1.90;1.02;;;;;;;16.46;nan;98771.63;7393937;19;20019;-83
2023/11/29 09:04:02;;;;;;;11.48;2.17;;;;;;;16.71;nan;98768.59;7396027;19;20006;-84
2023/11/29 09:06:30;;;;;;;6.82;1.75;;;;;;;16.89;nan;98774.03;7395396;19;20058;-83
2023/11/29 09:08:56;;;;;;;2.28;1.60;;;;;;;16.94;nan;98769.59;7400022;19;20011;-83
2023/11/29 09:11:22;;;;;;;0.80;0.80;;;;;;;16.66;nan;98764.59;7399960;19;20014;-83
2023/11/29 09:13:48;;;;;;;1.65;1.55;;;;;;;16.43;nan;98767.09;7395105;19;20014;-83
2023/11/29 09:16:15;;;;;;;0.65;0.65;;;;;;;14.49;nan;98777.91;7393890;19;20665;-84
2023/11/29 09:18:43;;;;;;;1.00;0.82;;;;;;;14.89;nan;98771.28;7393980;19;20018;-84
2023/11/29 09:21:10;;;;;;;0.25;0.25;;;;;;;15.28;nan;98772.75;7396389;19;20029;-83
2023/11/29 09:23:37;;;;;;;0.60;0.60;;;;;;;14.77;nan;98767.09;7395086;19;20085;-83
2023/11/29 09:26:03;;;;;;;0.63;0.63;;;;;;;15.04;nan;98779.97;7399118;19;20022;-84
2023/11/29 09:28:29;;;;;;;0.63;0.63;;;;;;;15.19;nan;98766.25;7395454;19;20038;-84
2023/11/29 09:30:58;;;;;;;6.43;0.70;;;;;;;14.78;nan;98765.06;7391759;19;20505;-84
2023/11/29 09:33:24;;;;;;;1.10;1.08;;;;;;;15.01;nan;98771.88;7391768;19;20014;-83
2023/11/29 09:35:50;;;;;;;0.50;0.50;;;;;;;15.38;nan;98759.81;7392062;19;20477;-83
2023/11/29 09:38:17;;;;;;;1.50;1.00;;;;;;;15.48;nan;98749.75;7398520;19;20115;-83
2023/11/29 09:40:43;;;;;;;0.40;0.40;;;;;;;17.30;nan;98753.69;7392633;19;20017;-84
2023/11/29 09:43:09;;;;;;;0.82;0.82;;;;;;;20.91;nan;98744.63;7392978;19;20013;-84
2023/11/29 09:45:36;;;;;;;1.23;1.13;;;;;;;22.57;nan;98748.94;7396324;19;20019;-84
2023/11/29 09:48:03;;;;;;;3.38;0.80;;;;;;;18.68;nan;98768.97;7395643;19;20015;-84
2023/11/29 09:50:31;;;;;;;8.18;2.53;;;;;;;16.49;nan;98753.69;7392544;19;20031;-85
2023/11/29 09:52:57;;;;;;;1.83;1.50;;;;;;;15.79;nan;98754.53;7394576;19;20010;-86
2023/11/29 09:55:25;;;;;;;1.80;1.70;;;;;;;17.36;nan;98754.28;7391355;19;20013;-85
2023/11/29 09:57:52;;;;;;;0.43;0.43;;;;;;;19.34;nan;98747.16;7391215;19;20025;-84
2023/11/29 10:00:19;;;;;;;1.38;1.23;;;;;;;18.56;nan;98742.41;7390727;19;20006;-84
2023/11/29 10:02:45;;;;;;;1.00;0.95;;;;;;;16.96;nan;98744.50;7391322;19;20464;-84
2023/11/29 10:05:11;;;;;;;0.85;0.85;;;;;;;16.12;nan;98753.91;7387356;19;20011;-84
2023/11/29 10:07:37;;;;;;;2.45;1.65;;;;;;;20.26;nan;98737.34;7387114;19;20010;-83
2023/11/29 10:10:07;;;;;;;22.38;2.40;;;;;;;20.21;nan;98738.28;7388497;19;20034;-83
2023/11/29 10:12:41;;;;;;;2.22;1.48;;;;;;;19.33;nan;98745.63;7384905;19;20014;-84
2023/11/29 10:15:09;;;;;;;7.03;1.55;;;;;;;20.89;nan;98743.69;7385686;19;20014;-85
2023/11/29 10:17:35;;;;;;;1.65;1.05;;;;;;;19.16;nan;98744.66;7389007;19;20022;-84
2023/11/29 10:20:02;;;;;;;0.80;0.63;;;;;;;20.87;nan;98735.78;7388899;19;20014;-85
2023/11/29 10:22:29;;;;;;;0.63;0.63;;;;;;;18.30;nan;98737.72;7389360;19;20010;-85
2023/11/29 10:24:55;;;;;;;5.78;0.98;;;;;;;17.94;nan;98732.06;7389344;19;20015;-85
2023/11/29 10:27:24;;;;;;;1.48;1.45;;;;;;;19.00;nan;98735.41;7393465;19;20035;-85
2023/11/29 10:29:50;;;;;;;0.38;0.38;;;;;;;19.28;nan;98735.25;7393656;19;20338;-86
2023/11/29 10:32:18;;;;;;;0.20;0.20;;;;;;;18.61;nan;98739.41;7393971;19;20010;-85
2023/11/29 10:34:45;;;;;;;0.95;0.95;;;;;;;18.40;nan;98735.91;7391491;19;20018;-85
2023/11/29 10:37:13;;;;;;;1.55;0.93;;;;;;;20.06;nan;98724.16;7389734;19;20048;-85
2023/11/29 10:39:41;;;;;;;5.78;1.30;;;;;;;22.22;nan;98727.59;7391851;19;20018;-85
2023/11/29 10:42:08;;;;;;;11.55;1.85;;;;;;;22.54;nan;98730.25;7393435;19;20085;-85
2023/11/29 10:44:37;;;;;;;1.75;1.23;;;;;;;21.80;nan;98724.03;7390648;19;20022;-84
2023/11/29 10:47:15;;;;;;;0.82;0.55;;;;;;;20.15;nan;98727.16;7390564;19;20048;-85
2023/11/29 10:49:47;;;;;;;2.92;0.90;;;;;;;19.92;nan;98725.69;7388504;19;20002;-84
2023/11/29 10:52:15;;;;;;;2.17;0.90;;;;;;;22.10;nan;98720.91;7395107;19;20011;-86
2023/11/29 10:54:43;;;;;;;1.52;1.30;;;;;;;25.03;nan;98710.38;7391049;19;20031;-87
2023/11/29 10:57:12;;;;;;;3.30;1.45;;;;;;;24.85;nan;98709.81;7392891;19;20006;-86
2023/11/29 10:59:46;;;;;;;0.82;0.80;;;;;;;26.37;nan;98704.78;7390903;19;20024;-85
2023/11/29 11:02:14;;;;;;;0.73;0.55;;;;;;;26.38;nan;98694.81;7391645;19;20699;-84
2023/11/29 11:04:47;;;;;;;2.08;1.02;;;;;;;26.68;nan;98701.81;7387810;19;20002;-83
2023/11/29 11:07:43;;;;;;;2.45;1.27;;;;;;;26.71;nan;98692.75;7389805;19;20011;-85
2023/11/29 11:10:11;;;;;;;3.75;1.05;;;;;;;22.65;nan;98705.56;7389025;19;20472;-85
2023/11/29 11:12:38;;;;;;;0.90;0.90;;;;;;;19.66;nan;98704.25;7387058;19;20495;-85
2023/11/29 11:15:19;;;;;;;2.25;1.25;;;;;;;20.06;nan;98690.22;7388929;19;20040;-85
2023/11/29 11:18:06;;;;;;;1.55;0.73;;;;;;;20.53;nan;98698.03;7386779;19;20473;-85
2023/11/29 11:20:48;;;;;;;0.40;0.40;;;;;;;18.63;nan;98702.94;7389491;19;20022;-84
2023/11/29 11:23:22;;;;;;;1.45;1.02;;;;;;;19.92;nan;98700.25;7388088;19;20342;-85
2023/11/29 11:25:55;;;;;;;1.17;0.40;;;;;;;19.70;nan;98692.56;7389438;19;20582;-84
2023/11/29 11:28:32;;;;;;;0.40;0.40;;;;;;;19.71;nan;98685.63;7386847;19;19998;-84
2023/11/29 11:31:06;;;;;;;2.85;1.00;;;;;;;19.94;nan;98689.16;7385427;19;20010;-85
2023/11/29 11:33:50;;;;;;;0.50;0.50;;;;;;;19.88;nan;98680.84;7389071;19;20121;-85
2023/11/29 11:36:21;;;;;;;0.45;0.45;;;;;;;25.91;nan;98659.56;7390507;19;20049;-85
2023/11/29 11:38:47;;;;;;;0.65;0.63;;;;;;;27.18;nan;98664.28;7388970;19;20094;-86
2023/11/29 11:41:17;;;;;;;0.50;0.50;;;;;;;28.07;nan;98654.06;7387792;19;20025;-85
2023/11/29 11:43:43;;;;;;;0.65;0.65;;;;;;;28.40;nan;98651.69;7385934;19;20062;-85
2023/11/29 11:46:10;;;;;;;10.73;2.45;;;;;;;28.67;nan;98656.84;7390080;19;20010;-86
2023/11/29 11:48:39;;;;;;;0.73;0.43;;;;;;;28.80;nan;98649.66;7388168;19;20482;-86